Flight Track Log - Related Links

Times and Time Zones

All times are in EDT time to prevent confusion due to time zone crossing. See the FDX1 flight status page for this flight to view local times or setup timezone preferences in your user account.

Time Position Orientation Groundspeed Altitude Reporting Facility
EDT Latitude Longitude Course Direction KTS MPH feet Rate Location/Type
Thu 05:58:00 PM 55.0761 -18.1310 294° West  Level Estimated
Thu 05:59:00 PM 55.0948 -18.3464 279° West  Level Estimated
Thu 06:00:00 PM 55.1132 -18.5620 279° West  Level Estimated
Thu 06:01:00 PM 55.1312 -18.7778 278° West  Level Estimated
Thu 06:02:00 PM 55.1488 -18.9938 278° West  Level Estimated
Thu 06:03:00 PM 55.1660 -19.2100 278° West  Level Estimated
Thu 06:04:00 PM 55.1829 -19.4264 278° West  Level Estimated
Thu 06:05:00 PM 55.1993 -19.6429 278° West  Level Estimated
Thu 06:06:00 PM 55.2154 -19.8596 277° West  Level Estimated
Thu 06:07:00 PM 55.2311 -20.0765 277° West  Level Estimated
Thu 06:08:00 PM 55.2464 -20.2936 277° West  Level Estimated
Thu 06:09:00 PM 55.2613 -20.5108 277° West  Level Estimated
Thu 06:10:00 PM 55.2759 -20.7282 277° West  Level Estimated
Thu 06:11:00 PM 55.2900 -20.9457 277° West  Level Estimated
Thu 06:12:00 PM 55.3038 -21.1634 276° West  Level Estimated
Thu 06:13:00 PM 55.3172 -21.3813 276° West  Level Estimated
Thu 06:13:00 PM 56.0000 -20.0000 284° West 438 504 32,000  Level ETMS Enhanced Traffic Management System
Thu 06:14:00 PM 55.3301 -21.5993 276° West  Level Estimated
Thu 06:15:00 PM 55.3427 -21.8174 276° West  Level Estimated
Thu 06:16:00 PM 55.3549 -22.0357 276° West  Level Estimated
Thu 06:17:00 PM 55.3668 -22.2541 276° West  Level Estimated
Thu 06:18:00 PM 55.3782 -22.4726 275° West  Level Estimated
Thu 06:19:00 PM 56.1755 -21.2718 283° West 438 504 32,000  Level FlightAware Transoceanic
Thu 06:20:00 PM 56.2034 -21.4849 283° West 438 504 32,000  Level FlightAware Transoceanic
Thu 06:21:00 PM 56.2310 -21.6983 283° West 438 504 32,000  Level FlightAware Transoceanic
Thu 06:22:00 PM 56.2583 -21.9120 283° West 438 504 32,000  Level FlightAware Transoceanic
Thu 06:23:00 PM 56.2851 -22.1260 283° West 438 504 32,000  Level FlightAware Transoceanic
Thu 06:24:00 PM 56.3116 -22.3403 282° West 438 504 32,000  Level FlightAware Transoceanic
Thu 06:25:00 PM 56.3378 -22.5549 282° West 438 504 32,000  Level FlightAware Transoceanic
Thu 06:26:00 PM 56.3635 -22.7698 282° West 438 504 32,000  Level FlightAware Transoceanic
Thu 06:27:00 PM 56.3889 -22.9849 282° West 438 504 32,000  Level FlightAware Transoceanic
Thu 06:28:00 PM 56.4139 -23.2004 282° West 438 504 32,000  Level FlightAware Transoceanic
Thu 06:29:00 PM 56.4385 -23.4161 282° West 438 504 32,000  Level FlightAware Transoceanic
Thu 06:30:00 PM 56.4628 -23.6322 281° West 438 504 32,000  Level FlightAware Transoceanic
Thu 06:31:00 PM 56.4867 -23.8485 281° West 438 504 32,000  Level FlightAware Transoceanic
Thu 06:32:00 PM 56.5102 -24.0650 281° West 438 504 32,000  Level FlightAware Transoceanic
Thu 06:33:00 PM 56.5333 -24.2819 281° West 438 504 32,000  Level FlightAware Transoceanic
Thu 06:34:00 PM 56.5561 -24.4989 281° West 438 504 32,000  Level FlightAware Transoceanic
Thu 06:35:00 PM 56.5784 -24.7163 280° West 438 504 32,000  Level FlightAware Transoceanic
Thu 06:36:00 PM 56.6004 -24.9339 280° West 438 504 32,000  Level FlightAware Transoceanic
Thu 06:37:00 PM 56.6221 -25.1518 280° West 438 504 32,000  Level FlightAware Transoceanic
Thu 06:38:00 PM 56.6433 -25.3699 280° West 438 504 32,000  Level FlightAware Transoceanic
Thu 06:39:00 PM 56.6642 -25.5882 280° West 438 504 32,000  Level FlightAware Transoceanic
Thu 06:40:00 PM 56.6846 -25.8068 280° West 438 504 32,000  Level FlightAware Transoceanic
Thu 06:41:00 PM 56.7047 -26.0256 279° West 438 504 32,000  Level FlightAware Transoceanic
Thu 06:42:00 PM 56.7244 -26.2447 279° West 438 504 32,000  Level FlightAware Transoceanic
Thu 06:43:00 PM 56.7437 -26.4640 279° West 438 504 32,000  Level FlightAware Transoceanic
Thu 06:44:00 PM 56.7627 -26.6835 279° West 438 504 32,000  Level FlightAware Transoceanic
Thu 06:45:00 PM 56.7812 -26.9032 279° West 438 504 32,000  Level FlightAware Transoceanic
Thu 06:46:00 PM 56.7994 -27.1231 278° West 438 504 32,000  Level FlightAware Transoceanic
Thu 06:47:00 PM 56.8171 -27.3433 278° West 438 504 32,000  Level FlightAware Transoceanic
Thu 06:48:00 PM 56.8345 -27.5637 278° West 438 504 32,000  Level FlightAware Transoceanic
Thu 06:49:00 PM 56.8515 -27.7842 278° West 438 504 32,000  Level FlightAware Transoceanic
Thu 06:50:00 PM 56.8681 -28.0050 278° West 438 504 32,000  Level FlightAware Transoceanic
Thu 06:51:00 PM 56.8843 -28.2259 278° West 438 504 32,000  Level FlightAware Transoceanic
Thu 06:52:00 PM 56.9002 -28.4471 277° West 438 504 32,000  Level FlightAware Transoceanic
Thu 06:53:00 PM 56.9156 -28.6684 277° West 438 504 32,000  Level FlightAware Transoceanic
Thu 06:54:00 PM 56.9307 -28.8899 277° West 438 504 32,000  Level FlightAware Transoceanic
Thu 06:55:00 PM 56.9453 -29.1116 277° West 438 504 32,000  Level FlightAware Transoceanic
Thu 06:56:00 PM 56.9596 -29.3334 277° West 438 504 32,000  Level FlightAware Transoceanic
Thu 06:57:00 PM 56.9734 -29.5555 276° West 438 504 32,000  Level FlightAware Transoceanic
Thu 06:58:00 PM 56.9869 -29.7777 276° West 438 504 32,000  Level FlightAware Transoceanic
Thu 06:59:00 PM 57.0003 -30.0053 276° West  Level FlightAware Approximate
Thu 07:00:00 PM 57.0004 -30.0105 274° West  Level FlightAware Approximate
Thu 07:01:00 PM 57.0093 -30.2390 274° West  Level FlightAware Approximate
Thu 07:02:00 PM 57.0178 -30.4675 274° West  Level FlightAware Approximate
Thu 07:03:00 PM 57.0259 -30.6961 274° West  Level FlightAware Approximate
Thu 07:04:00 PM 57.0335 -30.9248 274° West  Level FlightAware Approximate
Thu 07:05:00 PM 57.0407 -31.1536 273° West  Level FlightAware Approximate
Thu 07:06:00 PM 57.0476 -31.3825 273° West  Level FlightAware Approximate
Thu 07:07:00 PM 57.0540 -31.6115 273° West  Level FlightAware Approximate
Thu 07:08:00 PM 57.0599 -31.8405 273° West  Level FlightAware Approximate
Thu 07:09:00 PM 57.0655 -32.0697 273° West  Level FlightAware Approximate
Thu 07:10:00 PM 57.0706 -32.2989 272° West  Level FlightAware Approximate
Thu 07:11:00 PM 57.0754 -32.5281 272° West  Level FlightAware Approximate
Thu 07:12:00 PM 57.0797 -32.7574 272° West  Level FlightAware Approximate
Thu 07:13:00 PM 57.0836 -32.9868 272° West  Level FlightAware Approximate
Thu 07:14:00 PM 57.0870 -33.2162 272° West  Level FlightAware Approximate
Thu 07:15:00 PM 57.0901 -33.4456 271° West  Level FlightAware Approximate
Thu 07:16:00 PM 57.0927 -33.6751 271° West  Level FlightAware Approximate
Thu 07:17:00 PM 57.0949 -33.9046 271° West  Level FlightAware Approximate
Thu 07:18:00 PM 57.0967 -34.1341 271° West  Level FlightAware Approximate
Thu 07:19:00 PM 57.0981 -34.3637 271° West  Level FlightAware Approximate
Thu 07:20:00 PM 57.0990 -34.5933 271° West  Level FlightAware Approximate
Thu 07:21:00 PM 57.0996 -34.8228 270° West  Level FlightAware Approximate
Thu 07:22:00 PM 57.0997 -35.0524 270° West  Level FlightAware Approximate
Thu 07:23:00 PM 57.0994 -35.2820 270° West  Level FlightAware Approximate
Thu 07:24:00 PM 57.0987 -35.5116 270° West  Level FlightAware Approximate
Thu 07:25:00 PM 57.0975 -35.7411 270° West  Level FlightAware Approximate
Thu 07:26:00 PM 57.0960 -35.9707 269° West  Level FlightAware Approximate
Thu 07:27:00 PM 57.0940 -36.2002 269° West  Level FlightAware Approximate
Thu 07:28:00 PM 57.0916 -36.4297 269° West  Level FlightAware Approximate
Thu 07:29:00 PM 57.0887 -36.6591 269° West  Level FlightAware Approximate
Thu 07:30:00 PM 57.0855 -36.8886 269° West  Level FlightAware Approximate
Thu 07:31:00 PM 57.0818 -37.1180 268° West  Level FlightAware Approximate
Thu 07:32:00 PM 57.0778 -37.3473 268° West  Level FlightAware Approximate
Thu 07:33:00 PM 57.0733 -37.5766 268° West  Level FlightAware Approximate
Thu 07:34:00 PM 57.0684 -37.8058 268° West  Level FlightAware Approximate
Thu 07:35:00 PM 57.0630 -38.0350 268° West  Level FlightAware Approximate
Thu 07:36:00 PM 57.0573 -38.2640 267° West  Level FlightAware Approximate
Thu 07:37:00 PM 57.0511 -38.4931 267° West  Level FlightAware Approximate
Thu 07:38:00 PM 57.0445 -38.7220 267° West  Level FlightAware Approximate
Thu 07:39:00 PM 57.0375 -38.9509 267° West  Level FlightAware Approximate
Thu 07:40:00 PM 57.0301 -39.1796 267° West  Level FlightAware Approximate
Thu 07:41:00 PM 57.0222 -39.4083 266° West  Level FlightAware Approximate
Thu 07:42:00 PM 57.0140 -39.6369 266° West  Level FlightAware Approximate
Thu 07:43:00 PM 57.0053 -39.8653 266° West  Level FlightAware Approximate
Thu 07:44:00 PM 57.0037 -40.0937 274° West  Level FlightAware Approximate
Thu 07:45:00 PM 57.0125 -40.3222 274° West  Level FlightAware Approximate
Thu 07:46:00 PM 57.0208 -40.5507 274° West  Level FlightAware Approximate
Thu 07:47:00 PM 57.0287 -40.7794 274° West  Level FlightAware Approximate
Thu 07:48:00 PM 57.0362 -41.0081 274° West  Level FlightAware Approximate
Thu 07:49:00 PM 57.0433 -41.2370 273° West  Level FlightAware Approximate
Thu 07:50:00 PM 57.0499 -41.4659 273° West  Level FlightAware Approximate
Thu 07:51:00 PM 57.0562 -41.6949 273° West  Level FlightAware Approximate
Thu 07:52:00 PM 57.0620 -41.9240 273° West  Level FlightAware Approximate
Thu 07:53:00 PM 57.0674 -42.1531 273° West  Level FlightAware Approximate
Thu 07:54:00 PM 57.0724 -42.3824 272° West  Level FlightAware Approximate
Thu 07:55:00 PM 57.0770 -42.6116 272° West  Level FlightAware Approximate
Thu 07:56:00 PM 57.0811 -42.8410 272° West  Level FlightAware Approximate
Thu 07:57:00 PM 57.0849 -43.0703 272° West  Level FlightAware Approximate
Thu 07:58:00 PM 57.0882 -43.2997 272° West  Level FlightAware Approximate
Thu 07:59:00 PM 57.0911 -43.5292 271° West  Level FlightAware Approximate
Thu 08:00:00 PM 57.0936 -43.7587 271° West  Level FlightAware Approximate
Thu 08:01:00 PM 57.0956 -43.9882 271° West  Level FlightAware Approximate
Thu 08:02:00 PM 57.0973 -44.2178 271° West  Level FlightAware Approximate
Thu 08:03:00 PM 57.0985 -44.4473 271° West  Level FlightAware Approximate
Thu 08:04:00 PM 57.0993 -44.6769 270° West  Level FlightAware Approximate
Thu 08:05:00 PM 57.0997 -44.9065 270° West  Level FlightAware Approximate
Thu 08:06:00 PM 57.0996 -45.1360 270° West  Level FlightAware Approximate
Thu 08:07:00 PM 57.0992 -45.3656 270° West  Level FlightAware Approximate
Thu 08:08:00 PM 57.0983 -45.5952 270° West  Level FlightAware Approximate
Thu 08:09:00 PM 57.0970 -45.8247 270° West  Level FlightAware Approximate
Thu 08:10:00 PM 57.0953 -46.0543 269° West  Level FlightAware Approximate
Thu 08:11:00 PM 57.0931 -46.2838 269° West  Level FlightAware Approximate
Thu 08:12:00 PM 57.0906 -46.5133 269° West  Level FlightAware Approximate
Thu 08:13:00 PM 57.0876 -46.7427 269° West  Level FlightAware Approximate
Thu 08:14:00 PM 57.0842 -46.9721 269° West  Level FlightAware Approximate
Thu 08:15:00 PM 57.0804 -47.2015 268° West  Level FlightAware Approximate
Thu 08:16:00 PM 57.0762 -47.4308 268° West  Level FlightAware Approximate
Thu 08:17:00 PM 57.0715 -47.6601 268° West  Level FlightAware Approximate
Thu 08:18:00 PM 57.0665 -47.8893 268° West  Level FlightAware Approximate
Thu 08:19:00 PM 57.0610 -48.1184 268° West  Level FlightAware Approximate
Thu 08:20:00 PM 57.0551 -48.3475 267° West  Level FlightAware Approximate
Thu 08:21:00 PM 57.0487 -48.5765 267° West  Level FlightAware Approximate
Thu 08:22:00 PM 57.0420 -48.8054 267° West  Level FlightAware Approximate
Thu 08:23:00 PM 57.0348 -49.0342 267° West  Level FlightAware Approximate
Thu 08:24:00 PM 57.0273 -49.2630 267° West  Level FlightAware Approximate
Thu 08:25:00 PM 57.0193 -49.4916 266° West  Level FlightAware Approximate
Thu 08:26:00 PM 57.0109 -49.7201 266° West  Level FlightAware Approximate
Thu 08:27:00 PM 57.0020 -49.9486 266° West  Level FlightAware Approximate
Thu 08:28:00 PM 56.9700 -50.1685 252° West  Level FlightAware Approximate
Thu 08:29:00 PM 56.9308 -50.3856 252° West  Level FlightAware Approximate
Thu 08:30:00 PM 56.8913 -50.6023 252° West  Level FlightAware Approximate
Thu 08:31:00 PM 56.8515 -50.8185 251° West  Level FlightAware Approximate
Thu 08:32:00 PM 56.8112 -51.0342 251° West  Level FlightAware Approximate
Thu 08:33:00 PM 56.7706 -51.2495 251° West  Level FlightAware Approximate
Thu 08:34:00 PM 56.7296 -51.4643 251° West  Level FlightAware Approximate
Thu 08:35:00 PM 56.6883 -51.6786 251° West  Level FlightAware Approximate
Thu 08:36:00 PM 56.6465 -51.8925 251° West  Level FlightAware Approximate
Thu 08:37:00 PM 56.6045 -52.1059 250° West  Level FlightAware Approximate
Thu 08:38:00 PM 56.5620 -52.3188 250° West  Level FlightAware Approximate
Thu 08:39:00 PM 56.5192 -52.5312 250° West  Level FlightAware Approximate
Thu 08:40:00 PM 56.4760 -52.7432 250° West  Level FlightAware Approximate
Thu 08:41:00 PM 56.4325 -52.9547 250° West  Level FlightAware Approximate
Thu 08:42:00 PM 56.3886 -53.1656 249° West  Level FlightAware Approximate
Thu 08:43:00 PM 56.3443 -53.3761 249° West  Level FlightAware Approximate
Thu 08:44:00 PM 56.2997 -53.5861 249° West  Level FlightAware Approximate
Thu 08:45:00 PM 56.2548 -53.7956 249° West  Level FlightAware Approximate
Thu 08:46:00 PM 56.2094 -54.0047 249° West  Level FlightAware Approximate
Thu 08:47:00 PM 56.1638 -54.2132 249° West  Level FlightAware Approximate
Thu 08:48:00 PM 56.1177 -54.4212 248° West  Level FlightAware Approximate
Thu 08:49:00 PM 56.0714 -54.6287 248° West  Level FlightAware Approximate
Thu 08:50:00 PM 56.0247 -54.8358 248° West  Level FlightAware Approximate
Thu 08:50:26 PM 55.8833 -55.5833 247° West 600 690 32,000  Level Moncton Center
Thu 08:51:00 PM 55.9778 -55.0416 248° West  Level FlightAware Approximate
Thu 08:51:26 PM 55.8167 -55.8333 245° Southwest 500 575 32,000  Level Moncton Center
Thu 08:52:00 PM 55.9306 -55.2469 248° West  Level FlightAware Approximate
Thu 08:52:26 PM 55.7500 -56.0167 237° Southwest 500 575 32,000  Level Moncton Center
Thu 08:53:00 PM 55.8830 -55.4517 248° West  Level FlightAware Approximate
Thu 08:53:26 PM 55.7000 -56.2500 249° West 500 575 32,000  Level Moncton Center
Thu 08:54:00 PM 55.8351 -55.6559 247° West  Level FlightAware Approximate
Thu 08:54:26 PM 55.6500 -56.5000 251° West 500 575 32,000  Level Moncton Center
Thu 08:55:00 PM 55.7868 -55.8597 247° West  Level FlightAware Approximate
Thu 08:55:26 PM 55.6000 -56.7167 248° West 500 575 32,000  Level Moncton Center
Thu 08:56:26 PM 55.5500 -56.9333 248° West 500 575 32,000 550 Level Moncton Center
Thu 08:57:26 PM 55.4667 -57.1167 231° Southwest 490 564 33,100 1,000 Climbing Moncton Center
Thu 08:58:26 PM 55.3667 -57.3167 229° Southwest 490 564 34,000 450 Climbing Moncton Center
Thu 08:59:26 PM 55.2500 -57.4500 213° Southwest 500 575 34,000  Level Moncton Center
Thu 09:00:26 PM 55.1667 -57.6167 229° Southwest 500 575 34,000  Level Moncton Center
Thu 09:01:26 PM 55.0500 -57.7833 219° Southwest 500 575 34,000  Level Moncton Center
Thu 09:02:26 PM 54.9500 -57.9333 221° Southwest 500 575 34,000  Level Moncton Center
Thu 09:03:26 PM 54.8333 -58.1000 219° Southwest 500 575 34,000  Level Moncton Center
Thu 09:04:26 PM 54.7500 -58.2667 229° Southwest 500 575 34,000  Level Moncton Center
Thu 09:05:26 PM 54.6333 -58.4167 217° Southwest 500 575 34,000  Level Moncton Center
Thu 09:06:26 PM 54.5167 -58.5833 220° Southwest 500 575 34,000  Level Moncton Center
Thu 09:07:26 PM 54.4333 -58.7000 219° Southwest 500 575 34,000  Level Moncton Center
Thu 09:08:26 PM 54.3167 -58.9000 225° Southwest 500 575 34,000  Level Moncton Center
Thu 09:09:26 PM 54.2167 -59.0167 214° Southwest 500 575 34,000  Level Moncton Center
Thu 09:10:26 PM 54.1000 -59.2167 225° Southwest 500 575 34,000  Level Moncton Center
Thu 09:11:26 PM 54.0000 -59.3333 214° Southwest 500 575 34,000  Level Moncton Center
Thu 09:12:26 PM 53.9000 -59.5167 227° Southwest 500 575 34,000  Level Moncton Center
Thu 09:13:26 PM 53.7833 -59.6500 214° Southwest 500 575 34,000  Level Moncton Center
Thu 09:14:26 PM 53.6833 -59.8000 222° Southwest 500 575 34,000  Level Moncton Center
Thu 09:15:26 PM 53.5833 -59.9500 222° Southwest 500 575 34,000  Level Moncton Center
Thu 09:16:24 PM 53.4667 -60.1000 217° Southwest 500 575 34,000  Level Gander Center
Thu 09:16:26 PM 53.4667 -60.1000 217° Southwest 510 587 34,000  Level Moncton Center
Thu 09:17:24 PM 53.3667 -60.2500 222° Southwest 500 575 34,000  Level Gander Center
Thu 09:18:26 PM 53.2500 -60.4000 218° Southwest 500 575 34,000  Level Moncton Center
Thu 09:19:26 PM 53.1500 -60.5500 222° Southwest 500 575 34,000  Level Moncton Center
Thu 09:20:26 PM 53.0333 -60.7000 218° Southwest 490 564 34,000  Level Moncton Center
Thu 09:21:26 PM 52.9333 -60.8500 222° Southwest 490 564 34,000  Level Moncton Center
Thu 09:22:26 PM 52.8167 -61.0000 218° Southwest 490 564 34,000  Level Moncton Center
Thu 09:23:26 PM 52.7333 -61.1333 224° Southwest 490 564 34,000  Level Moncton Center
Thu 09:24:26 PM 52.6167 -61.2500 211° Southwest 500 575 34,000  Level Moncton Center
Thu 09:25:26 PM 52.5000 -61.4000 218° Southwest 500 575 34,000  Level Moncton Center
Thu 09:26:26 PM 52.4000 -61.5500 222° Southwest 500 575 34,000  Level Moncton Center
Thu 09:27:26 PM 52.2833 -61.6833 215° Southwest 490 564 34,000  Level Moncton Center
Thu 09:28:26 PM 52.1833 -61.8333 223° Southwest 490 564 34,000  Level Moncton Center
Thu 09:29:26 PM 52.0833 -61.9667 219° Southwest 490 564 34,000  Level Moncton Center
Thu 09:30:26 PM 51.9667 -62.1167 218° Southwest 490 564 34,000  Level Moncton Center
Thu 09:31:26 PM 51.8500 -62.2500 215° Southwest 490 564 34,000  Level Moncton Center
Thu 09:32:26 PM 51.7500 -62.3667 216° Southwest 490 564 34,000  Level Moncton Center
Thu 09:33:26 PM 51.6500 -62.5167 223° Southwest 490 564 34,000  Level Moncton Center
Thu 09:34:26 PM 51.5333 -62.6500 215° Southwest 490 564 34,000  Level Moncton Center
Thu 09:35:26 PM 51.4333 -62.7833 220° Southwest 490 564 34,000  Level Moncton Center
Thu 09:36:26 PM 51.3167 -62.9167 216° Southwest 480 552 34,000  Level Moncton Center
Thu 09:37:26 PM 51.2167 -63.0333 216° Southwest 470 541 34,000  Level Moncton Center
Thu 09:38:26 PM 51.1000 -63.1667 216° Southwest 490 564 34,000  Level Moncton Center
Thu 09:39:26 PM 51.0167 -63.3000 225° Southwest 480 552 34,000  Level Moncton Center
Thu 09:40:26 PM 50.9000 -63.4500 219° Southwest 480 552 34,000  Level Moncton Center
Thu 09:41:26 PM 50.8000 -63.5500 212° Southwest 470 541 34,000  Level Moncton Center
Thu 09:42:26 PM 50.6833 -63.6833 216° Southwest 480 552 34,000  Level Moncton Center
Thu 09:43:26 PM 50.5833 -63.8167 220° Southwest 480 552 34,000  Level Moncton Center
Thu 09:44:26 PM 50.4833 -63.9167 212° Southwest 480 552 34,000  Level Moncton Center
Thu 09:45:26 PM 50.3667 -64.0500 216° Southwest 480 552 34,000  Level Moncton Center
Thu 09:46:26 PM 50.2667 -64.1833 220° Southwest 480 552 34,000  Level Moncton Center
Thu 09:47:26 PM 50.1667 -64.3167 221° Southwest 470 541 34,000 -50 Level Moncton Center
Thu 09:48:26 PM 50.0667 -64.4167 213° Southwest 460 529 33,900  Descending Moncton Center
Thu 09:49:26 PM 49.9667 -64.5333 217° Southwest 460 529 34,000 50 Climbing Moncton Center
Thu 09:50:26 PM 49.8500 -64.6500 213° Southwest 470 541 34,000 50 Level Moncton Center
Thu 09:51:26 PM 49.7333 -64.7833 216° Southwest 460 529 34,100  Climbing Moncton Center
Thu 09:52:26 PM 49.6333 -64.8833 213° Southwest 460 529 34,000 -50 Descending Moncton Center
Thu 09:53:26 PM 49.5167 -65.0167 217° Southwest 470 541 34,000  Level Moncton Center
Thu 09:54:26 PM 49.4167 -65.1500 221° Southwest 460 529 34,000 -50 Level Moncton Center
Thu 09:55:26 PM 49.3167 -65.2500 213° Southwest 460 529 33,900 -50 Descending Moncton Center
Thu 09:56:26 PM 49.2167 -65.3667 217° Southwest 450 518 33,900 50 Level Moncton Center
Thu 09:57:26 PM 49.1167 -65.4667 213° Southwest 450 518 34,000 50 Climbing Moncton Center
Thu 09:58:26 PM 49.0167 -65.5667 213° Southwest 450 518 34,000  Level Moncton Center
Thu 09:59:26 PM 48.9167 -65.7000 221° Southwest 460 529 34,000  Level Moncton Center
Thu 10:00:26 PM 48.8167 -65.8000 213° Southwest 450 518 34,000  Level Moncton Center
Thu 10:01:26 PM 48.7167 -65.9167 218° Southwest 440 506 34,000 -50 Level Moncton Center
Thu 10:02:26 PM 48.6167 -66.0167 213° Southwest 430 495 33,900  Descending Moncton Center
Thu 10:03:26 PM 48.5000 -66.1167 210° Southwest 430 495 34,000 50 Climbing Moncton Center
Thu 10:04:26 PM 48.4000 -66.2333 218° Southwest 440 506 34,000  Level Moncton Center
Thu 10:05:26 PM 48.3000 -66.3333 214° Southwest 440 506 34,000  Level Moncton Center
Thu 10:06:26 PM 48.2000 -66.4333 214° Southwest 440 506 34,000  Level Moncton Center
Thu 10:07:26 PM 48.1000 -66.5500 218° Southwest 450 518 34,000  Level Moncton Center
Thu 10:08:26 PM 48.0167 -66.6500 219° Southwest 430 495 34,000  Level Moncton Center
Thu 10:09:26 PM 47.9167 -66.7500 214° Southwest 410 472 34,000  Level Moncton Center
Thu 10:10:26 PM 47.8167 -66.8333 209° Southwest 410 472 34,000  Level Moncton Center
Thu 10:11:26 PM 47.7167 -66.9333 214° Southwest 410 472 34,000  Level Moncton Center
Thu 10:12:26 PM 47.6333 -67.0333 219° Southwest 420 483 34,000  Level Moncton Center
Thu 10:13:26 PM 47.5333 -67.1167 209° Southwest 420 483 34,000  Level Moncton Center
Thu 10:14:26 PM 47.4500 -67.2167 219° Southwest 410 472 34,000  Level Moncton Center
Thu 10:15:26 PM 47.3500 -67.3167 214° Southwest 400 460 34,000  Level Moncton Center
Thu 10:16:26 PM 47.2667 -67.4333 224° Southwest 390 449 34,000  Level Moncton Center
Thu 10:22:23 PM 46.8020 -68.0580 224° Southwest 388 447 34,000  Level FlightAware ADS-B
Thu 10:22:58 PM 46.7600 -68.1160 223° Southwest 380 437 34,000 80 Level FlightAware ADS-B
Thu 10:23:38 PM 46.7080 -68.1990 228° Southwest 381 438 34,100  Climbing FlightAware ADS-B
Thu 10:24:18 PM 46.6600 -68.2750 227° Southwest 385 443 34,000  Descending FlightAware ADS-B
Thu 10:25:08 PM 46.6020 -68.3660 227° Southwest 387 445 34,100  Climbing FlightAware ADS-B
Thu 10:25:53 PM 46.5410 -68.4590 226° Southwest 388 447 34,000 -71 Descending FlightAware ADS-B
Thu 10:26:33 PM 46.4920 -68.5360 227° Southwest 390 449 34,000  Level FlightAware ADS-B
Thu 10:27:18 PM 46.4380 -68.6210 227° Southwest 389 448 34,000  Level FlightAware ADS-B
Thu 10:27:58 PM 46.3890 -68.6960 227° Southwest 387 445 34,000  Level FlightAware ADS-B
Thu 10:28:38 PM 46.3400 -68.7720 227° Southwest 387 445 34,000 -75 Level FlightAware ADS-B
Thu 10:29:18 PM 46.2900 -68.8470 226° Southwest 388 447 33,900  Descending FlightAware ADS-B
Thu 10:30:03 PM 46.2350 -68.9320 227° Southwest 389 448 34,000 71 Climbing FlightAware ADS-B
Thu 10:30:43 PM 46.1860 -69.0070 227° Southwest 391 450 34,000  Level FlightAware ADS-B
Thu 10:31:28 PM 46.1300 -69.0930 227° Southwest 394 453 34,000  Level FlightAware ADS-B
Thu 10:32:08 PM 46.0790 -69.1710 227° Southwest 394 453 34,000  Level FlightAware ADS-B
Thu 10:32:53 PM 46.0240 -69.2540 226° Southwest 396 456 34,000  Level FlightAware ADS-B
Thu 10:33:38 PM 45.9660 -69.3400 226° Southwest 398 458 34,000  Level FlightAware ADS-B
Thu 10:34:18 PM 45.9160 -69.4160 227° Southwest 398 458 34,000  Level FlightAware ADS-B
Thu 10:34:58 PM 45.8650 -69.4930 226° Southwest 399 459 34,000  Level FlightAware ADS-B
Thu 10:35:38 PM 45.8140 -69.5690 226° Southwest 399 459 34,000  Level FlightAware ADS-B
Thu 10:36:23 PM 45.7560 -69.6550 226° Southwest 401 461 34,000  Level FlightAware ADS-B
Thu 10:37:08 PM 45.6980 -69.7410 226° Southwest 402 463 34,000  Level FlightAware ADS-B
Thu 10:37:48 PM 45.6470 -69.8170 226° Southwest 403 464 34,000  Level FlightAware ADS-B
Thu 10:38:28 PM 45.5960 -69.8930 226° Southwest 404 465 34,000  Level FlightAware ADS-B
Thu 10:39:13 PM 45.5380 -69.9790 226° Southwest 403 464 34,000  Level FlightAware ADS-B
Thu 10:39:53 PM 45.4860 -70.0560 226° Southwest 405 466 34,000  Level FlightAware ADS-B
Thu 10:40:33 PM 45.4330 -70.1320 225° Southwest 405 466 34,000  Level FlightAware ADS-B
Thu 10:41:18 PM 45.3740 -70.2180 226° Southwest 406 467 34,000  Level FlightAware ADS-B
Thu 10:41:58 PM 45.3230 -70.2940 226° Southwest 404 465 34,000  Level FlightAware ADS-B
Thu 10:42:43 PM 45.2640 -70.3790 225° Southwest 405 466 34,000  Level FlightAware ADS-B
Thu 10:43:23 PM 45.2120 -70.4550 226° Southwest 404 465 34,000  Level FlightAware ADS-B
Thu 10:44:03 PM 45.1590 -70.5300 225° Southwest 405 466 34,000  Level FlightAware ADS-B
Thu 10:44:48 PM 45.1000 -70.6150 225° Southwest 405 466 34,000  Level FlightAware ADS-B
Thu 10:45:28 PM 45.0480 -70.6900 226° Southwest 405 466 34,000  Level FlightAware ADS-B
Thu 10:46:13 PM 44.9910 -70.7710 225° Southwest 406 467 34,000  Level FlightAware ADS-B
Thu 10:46:43 PM 44.9490 -70.8320 226° Southwest 408 470 34,000  Level FlightAware ADS-B
Thu 10:47:38 PM 44.8800 -70.9300 225° Southwest 408 470 34,000  Level FlightAware ADS-B
Thu 10:48:18 PM 44.8230 -71.0110 225° Southwest 408 470 34,000  Level FlightAware ADS-B
Thu 10:48:58 PM 44.7690 -71.0880 225° Southwest 410 472 34,000  Level FlightAware ADS-B
Thu 10:49:43 PM 44.7100 -71.1700 225° Southwest 411 473 34,000  Level FlightAware ADS-B
Thu 10:50:23 PM 44.6570 -71.2460 226° Southwest 413 475 34,000 75 Level FlightAware ADS-B
Thu 10:51:03 PM 44.6030 -71.3220 225° Southwest 413 475 34,100 71 Climbing FlightAware ADS-B
Thu 10:51:48 PM 44.5400 -71.4090 225° Southwest 412 474 34,100 -71 Level FlightAware ADS-B
Thu 10:52:28 PM 44.4860 -71.4840 225° Southwest 411 473 34,000 -71 Descending FlightAware ADS-B
Thu 10:53:13 PM 44.4260 -71.5670 225° Southwest 410 472 34,000  Level FlightAware ADS-B
Thu 10:53:53 PM 44.3720 -71.6430 225° Southwest 410 472 34,000  Level FlightAware ADS-B
Thu 10:54:33 PM 44.3200 -71.7140 224° Southwest 410 472 34,000  Level FlightAware ADS-B
Thu 10:55:18 PM 44.2550 -71.8030 224° Southwest 409 471 34,000  Level FlightAware ADS-B
Thu 10:55:58 PM 44.2030 -71.8760 225° Southwest 410 472 34,000  Level FlightAware ADS-B
Thu 10:56:38 PM 44.1500 -71.9480 224° Southwest 409 471 34,000  Level FlightAware ADS-B
Thu 10:57:23 PM 44.0880 -72.0330 225° Southwest 410 472 34,000  Level FlightAware ADS-B
Thu 10:58:03 PM 44.0350 -72.1050 224° Southwest 411 473 34,000  Level FlightAware ADS-B
Thu 10:58:48 PM 43.9720 -72.1900 224° Southwest 412 474 34,000  Level FlightAware ADS-B
Thu 10:59:28 PM 43.9200 -72.2610 225° Southwest 413 475 34,000  Level FlightAware ADS-B
Thu 11:00:13 PM 43.8600 -72.3420 224° Southwest 414 476 34,000  Level FlightAware ADS-B
Thu 11:00:53 PM 43.8020 -72.4200 224° Southwest 415 478 34,000  Level FlightAware ADS-B
Thu 11:01:33 PM 43.7470 -72.4940 224° Southwest 415 478 34,000  Level FlightAware ADS-B
Thu 11:02:18 PM 43.6830 -72.5790 224° Southwest 416 479 34,000  Level FlightAware ADS-B
Thu 11:02:58 PM 43.6270 -72.6530 224° Southwest 418 481 34,000  Level FlightAware ADS-B
Thu 11:03:43 PM 43.5670 -72.7350 225° Southwest 418 481 34,000  Level FlightAware ADS-B
Thu 11:04:23 PM 43.5110 -72.8090 224° Southwest 420 483 34,000 75 Level FlightAware ADS-B
Thu 11:05:03 PM 43.4530 -72.8850 224° Southwest 420 483 34,100  Climbing FlightAware ADS-B
Thu 11:05:48 PM 43.3890 -72.9690 224° Southwest 422 486 34,000 -71 Descending FlightAware ADS-B
Thu 11:06:28 PM 43.3330 -73.0430 224° Southwest 422 486 34,000  Level FlightAware ADS-B
Thu 11:07:08 PM 43.2830 -73.1100 224° Southwest 422 486 34,000  Level FlightAware ADS-B
Thu 11:07:48 PM 43.2210 -73.1910 224° Southwest 423 487 34,000  Level FlightAware ADS-B
Thu 11:08:33 PM 43.1560 -73.2740 223° Southwest 423 487 34,000  Level FlightAware ADS-B
Thu 11:09:13 PM 43.1010 -73.3470 224° Southwest 425 489 34,000  Level FlightAware ADS-B
Thu 11:09:58 PM 43.0620 -73.3970 223° Southwest 425 489 34,000  Level FlightAware ADS-B
Thu 11:10:38 PM 43.0090 -73.4650 223° Southwest 426 490 34,000  Level FlightAware ADS-B
Thu 11:11:18 PM 42.9260 -73.5740 224° Southwest 425 489 34,000  Level FlightAware ADS-B
Thu 11:12:03 PM 42.8570 -73.6620 223° Southwest 423 487 34,000  Level FlightAware ADS-B
Thu 11:12:48 PM 42.7940 -73.7430 223° Southwest 424 488 34,000  Level FlightAware ADS-B
Thu 11:13:28 PM 42.7400 -73.8220 227° Southwest 416 479 34,000  Level FlightAware ADS-B
Thu 11:14:13 PM 42.6940 -73.9250 239° Southwest 414 476 34,000  Level FlightAware ADS-B
Thu 11:14:53 PM 42.6560 -74.0090 238° Southwest 413 475 34,000  Level FlightAware ADS-B
Thu 11:15:33 PM 42.6170 -74.0980 239° Southwest 412 474 34,000  Level FlightAware ADS-B
Thu 11:16:18 PM 42.5710 -74.2020 239° Southwest 413 475 34,000  Level FlightAware ADS-B
Thu 11:16:58 PM 42.5310 -74.2900 238° Southwest 414 476 34,000  Level FlightAware ADS-B
Thu 11:17:48 PM 42.4850 -74.3910 238° Southwest 415 478 34,000  Level FlightAware ADS-B
Thu 11:18:38 PM 42.4310 -74.5120 239° Southwest 416 479 34,000  Level FlightAware ADS-B
Thu 11:19:13 PM 42.3990 -74.5810 238° Southwest 416 479 34,000  Level FlightAware ADS-B
Thu 11:20:03 PM 42.3480 -74.6960 239° Southwest 420 483 34,000  Level FlightAware ADS-B
Thu 11:20:38 PM 42.3160 -74.7660 238° Southwest 420 483 34,000  Level FlightAware ADS-B
Thu 11:21:18 PM 42.2810 -74.8410 238° Southwest 420 483 34,000  Level FlightAware ADS-B
Thu 11:22:08 PM 42.2370 -74.9360 238° Southwest 420 483 34,000  Level FlightAware ADS-B
Thu 11:22:48 PM 42.2020 -75.0120 238° Southwest 420 483 34,000  Level FlightAware ADS-B
Thu 11:23:28 PM 42.1370 -75.1550 239° Southwest 424 488 34,000  Level FlightAware ADS-B
Thu 11:24:13 PM 42.0890 -75.2600 238° Southwest 423 487 34,000  Level FlightAware ADS-B
Thu 11:24:48 PM 42.0560 -75.3340 239° Southwest 421 484 34,000  Level FlightAware ADS-B
Thu 11:25:33 PM 42.0160 -75.4320 241° Southwest 420 483 34,000  Level FlightAware ADS-B
Thu 11:26:13 PM 41.9840 -75.5100 241° Southwest 420 483 34,000 -52 Level FlightAware ADS-B
Thu 11:27:28 PM 41.9100 -75.6880 241° Southwest 418 481 33,900  Descending FlightAware ADS-B
Thu 11:28:13 PM 41.8680 -75.7890 241° Southwest 419 482 34,000 71 Climbing FlightAware ADS-B
Thu 11:28:53 PM 41.8290 -75.8820 241° Southwest 419 482 34,000  Level FlightAware ADS-B
Thu 11:29:08 PM 41.8073 -75.9349 241° Southwest 421 484 34,000  Level FlightAware ADS-B
Thu 11:29:40 PM 41.7766 -76.0078 241° Southwest 423 487 34,000 90 Level FlightAware ADS-B
Thu 11:30:15 PM 41.7436 -76.0856 240° Southwest 424 488 34,100  Climbing FlightAware ADS-B
Thu 11:30:48 PM 41.7118 -76.1609 241° Southwest 426 490 34,000 -94 Descending FlightAware ADS-B
Thu 11:31:19 PM 41.6811 -76.2345 241° Southwest 427 491 34,000  Level FlightAware ADS-B
Thu 11:31:54 PM 41.6469 -76.3150 240° Southwest 429 494 34,000  Level FlightAware ADS-B
Thu 11:32:26 PM 41.6159 -76.3886 241° Southwest 429 494 34,000  Level FlightAware ADS-B
Thu 11:32:59 PM 41.5842 -76.4625 240° Southwest 430 495 34,000  Level FlightAware ADS-B
Thu 11:33:30 PM 41.5534 -76.5364 241° Southwest 430 495 34,000  Level FlightAware ADS-B
Thu 11:34:01 PM 41.5232 -76.6055 240° Southwest 431 496 34,000  Level FlightAware ADS-B
Thu 11:34:31 PM 41.4928 -76.6772 241° Southwest 431 496 34,000  Level FlightAware ADS-B
Thu 11:35:02 PM 41.4624 -76.7484 240° Southwest 431 496 34,000  Level FlightAware ADS-B
Thu 11:35:40 PM 41.4245 -76.8361 240° Southwest 431 496 34,000  Level FlightAware ADS-B
Thu 11:36:22 PM 41.3829 -76.9322 240° Southwest 430 495 34,000  Level FlightAware ADS-B
Thu 11:36:54 PM 41.3512 -77.0057 240° Southwest 431 496 34,000  Level FlightAware ADS-B
Thu 11:37:27 PM 41.3184 -77.0814 240° Southwest 430 495 34,000  Level FlightAware ADS-B
Thu 11:38:00 PM 41.2853 -77.1570 240° Southwest 431 496 34,000  Level FlightAware ADS-B
Thu 11:38:32 PM 41.2532 -77.2302 240° Southwest 431 496 34,000  Level FlightAware ADS-B
Thu 11:39:08 PM 41.2175 -77.3127 240° Southwest 431 496 34,000  Level FlightAware ADS-B
Thu 11:39:58 PM 41.1700 -77.4200 240° Southwest 428 493 34,000  Level FlightAware ADS-B
Thu 11:40:32 PM 41.1334 -77.5027 240° Southwest 433 498 34,000 91 Level FlightAware ADS-B
Thu 11:41:04 PM 41.1011 -77.5778 240° Southwest 431 496 34,100  Climbing FlightAware ADS-B
Thu 11:41:40 PM 41.0651 -77.6575 239° Southwest 430 495 34,000 -76 Descending FlightAware ADS-B
Thu 11:42:23 PM 41.0300 -77.7370 240° Southwest 428 493 34,000  Level FlightAware ADS-B
Thu 11:43:08 PM 40.9830 -77.8430 240° Southwest 428 493 34,000  Level FlightAware ADS-B
Thu 11:43:48 PM 40.9440 -77.9310 240° Southwest 428 493 34,000  Level FlightAware ADS-B
Thu 11:44:28 PM 40.8990 -78.0180 236° Southwest 430 495 34,000  Level FlightAware ADS-B
Thu 11:45:13 PM 40.8410 -78.1100 230° Southwest 431 496 34,000  Level FlightAware ADS-B
Thu 11:45:53 PM 40.7930 -78.1850 230° Southwest 435 501 34,000  Level FlightAware ADS-B
Thu 11:46:38 PM 40.7330 -78.2790 230° Southwest 441 507 34,000 71 Level FlightAware ADS-B
Thu 11:47:18 PM 40.6770 -78.3650 229° Southwest 442 509 34,100  Climbing FlightAware ADS-B
Thu 11:47:58 PM 40.6270 -78.4430 230° Southwest 442 509 34,000 -71 Descending FlightAware ADS-B
Thu 11:48:43 PM 40.5650 -78.5370 229° Southwest 441 507 34,000  Level FlightAware ADS-B
Thu 11:49:23 PM 40.5270 -78.6250 240° Southwest 438 504 34,000  Level FlightAware ADS-B
Thu 11:50:08 PM 40.4860 -78.7260 242° Southwest 437 503 34,000  Level FlightAware ADS-B
Thu 11:50:48 PM 40.4450 -78.8270 242° Southwest 438 504 34,000  Level FlightAware ADS-B
Thu 11:51:28 PM 40.4020 -78.9320 242° Southwest 438 504 34,000  Level FlightAware ADS-B
Thu 11:52:13 PM 40.3600 -79.0350 242° Southwest 434 499 34,000  Level FlightAware ADS-B
Thu 11:52:53 PM 40.3200 -79.1320 242° Southwest 428 493 34,000  Level FlightAware ADS-B
Thu 11:53:28 PM 40.2880 -79.2110 242° Southwest 426 490 34,000  Level FlightAware ADS-B
Thu 11:54:18 PM 40.2400 -79.3270 242° Southwest 425 489 34,000  Level FlightAware ADS-B
Thu 11:54:53 PM 40.2080 -79.4040 241° Southwest 426 490 34,000  Level FlightAware ADS-B
Thu 11:55:43 PM 40.1600 -79.5170 241° Southwest 430 495 34,000  Level FlightAware ADS-B
Thu 11:56:23 PM 40.1240 -79.6040 242° Southwest 428 493 34,000  Level FlightAware ADS-B
Thu 11:57:03 PM 40.0840 -79.6990 241° Southwest 428 493 34,000  Level FlightAware ADS-B
Thu 11:57:48 PM 40.0450 -79.7940 242° Southwest 422 486 34,000  Level FlightAware ADS-B
Thu 11:58:28 PM 40.0030 -79.8920 241° Southwest 422 486 34,000  Level FlightAware ADS-B
Thu 11:59:13 PM 39.9610 -79.9910 241° Southwest 423 487 34,000  Level FlightAware ADS-B
Fri 12:00:08 AM 39.9110 -80.1090 241° Southwest 422 486 34,000  Level FlightAware ADS-B
Fri 12:01:03 AM 39.8620 -80.2240 241° Southwest 423 487 34,000  Level FlightAware ADS-B
Fri 12:01:33 AM 39.8380 -80.2810 241° Southwest 423 487 34,000  Level FlightAware ADS-B
Fri 12:02:33 AM 39.7750 -80.4270 241° Southwest 422 486 34,000  Level FlightAware ADS-B
Fri 12:03:18 AM 39.7280 -80.5380 241° Southwest 427 491 34,000  Level FlightAware ADS-B
Fri 12:03:58 AM 39.6900 -80.6250 240° Southwest 433 498 34,000 75 Level FlightAware ADS-B
Fri 12:04:38 AM 39.6500 -80.7180 241° Southwest 433 498 34,100  Climbing FlightAware ADS-B
Fri 12:05:23 AM 39.6070 -80.8180 241° Southwest 432 497 34,000  Descending FlightAware ADS-B
Fri 12:06:03 AM 39.5660 -80.9100 240° Southwest 428 493 34,100  Climbing FlightAware ADS-B
Fri 12:06:48 AM 39.5220 -81.0100 240° Southwest 423 487 34,000 -71 Descending FlightAware ADS-B
Fri 12:07:28 AM 39.4850 -81.0960 241° Southwest 421 484 34,000  Level FlightAware ADS-B
Fri 12:08:13 AM 39.4410 -81.1970 241° Southwest 421 484 34,000  Level FlightAware ADS-B
Fri 12:08:53 AM 39.4050 -81.2780 240° Southwest 424 488 34,000 75 Level FlightAware ADS-B
Fri 12:09:33 AM 39.3630 -81.3730 240° Southwest 423 487 34,100  Climbing FlightAware ADS-B
Fri 12:10:18 AM 39.3190 -81.4720 240° Southwest 423 487 34,000  Descending FlightAware ADS-B
Fri 12:10:53 AM 39.2860 -81.5460 240° Southwest 420 483 34,100  Climbing FlightAware ADS-B
Fri 12:11:43 AM 39.2370 -81.6550 240° Southwest 421 484 34,000 -55 Descending FlightAware ADS-B
Fri 12:12:43 AM 39.1800 -81.7830 240° Southwest 422 486 34,000  Level FlightAware ADS-B
Fri 12:13:13 AM 39.1490 -81.8510 240° Southwest 423 487 34,000  Level FlightAware ADS-B
Fri 12:13:58 AM 39.1050 -81.9500 240° Southwest 424 488 34,000 63 Level FlightAware ADS-B
Fri 12:14:48 AM 39.0540 -82.0630 240° Southwest 422 486 34,100 67 Climbing FlightAware ADS-B
Fri 12:15:28 AM 39.0170 -82.1460 240° Southwest 420 483 34,100 -71 Level FlightAware ADS-B
Fri 12:16:13 AM 38.9730 -82.2420 240° Southwest 417 480 34,000 -75 Descending FlightAware ADS-B
Fri 12:16:48 AM 38.9380 -82.3190 240° Southwest 416 479 34,000  Level FlightAware ADS-B
Fri 12:17:33 AM 38.8930 -82.4150 239° Southwest 418 481 34,000  Level FlightAware ADS-B
Fri 12:18:18 AM 38.8490 -82.5110 240° Southwest 420 483 34,000  Level FlightAware ADS-B
Fri 12:19:13 AM 38.7990 -82.6200 240° Southwest 421 484 34,000  Level FlightAware ADS-B
Fri 12:19:53 AM 38.7640 -82.6930 238° Southwest 421 484 34,000  Level FlightAware ADS-B
Fri 12:20:33 AM 38.7300 -82.7660 239° Southwest 421 484 34,000  Level FlightAware ADS-B
Fri 12:21:18 AM 38.6710 -82.8970 240° Southwest 417 480 34,000  Level FlightAware ADS-B
Fri 12:21:22 AM 38.6652 -82.9100 240° Southwest 418 481 34,000  Level FlightAware ADS-B
Fri 12:21:53 AM 38.6353 -82.9735 239° Southwest 417 480 34,000  Level FlightAware ADS-B
Fri 12:22:23 AM 38.6052 -83.0389 240° Southwest 415 478 34,000  Level FlightAware ADS-B
Fri 12:23:13 AM 38.5590 -83.1380 239° Southwest 413 475 34,000  Level FlightAware ADS-B
Fri 12:23:53 AM 38.5240 -83.2120 239° Southwest 413 475 34,000  Level FlightAware ADS-B
Fri 12:24:33 AM 38.4900 -83.2830 239° Southwest 413 475 34,000  Level FlightAware ADS-B
Fri 12:25:13 AM 38.4570 -83.3540 239° Southwest 413 475 34,000  Level FlightAware ADS-B
Fri 12:25:53 AM 38.4040 -83.4660 239° Southwest 414 476 34,000  Level FlightAware ADS-B
Fri 12:26:53 AM 38.3430 -83.5960 239° Southwest 415 478 34,000 60 Level FlightAware ADS-B
Fri 12:27:33 AM 38.3020 -83.6820 239° Southwest 415 478 34,100 71 Climbing FlightAware ADS-B
Fri 12:28:18 AM 38.2600 -83.7660 238° Southwest 415 478 34,100 -67 Level FlightAware ADS-B
Fri 12:29:03 AM 38.2120 -83.8700 240° Southwest 408 470 34,000 -71 Descending FlightAware ADS-B
Fri 12:29:43 AM 38.1720 -83.9520 238° Southwest 406 467 34,000  Level FlightAware ADS-B
Fri 12:30:28 AM 38.1300 -84.0400 239° Southwest 407 468 34,000  Level FlightAware ADS-B
Fri 12:31:03 AM 38.0970 -84.1070 238° Southwest 407 468 34,000  Level FlightAware ADS-B
Fri 12:31:29 AM 38.0660 -84.1728 239° Southwest 410 472 34,000 102 Level FlightAware ADS-B
Fri 12:32:02 AM 38.0329 -84.2402 238° Southwest 410 472 34,100 94 Climbing FlightAware ADS-B
Fri 12:32:33 AM 38.0040 -84.3000 238° Southwest 411 473 34,100 -113 Level FlightAware ADS-B
Fri 12:32:55 AM 37.9806 -84.3490 239° Southwest 411 473 34,000  Descending FlightAware ADS-B
Fri 12:33:29 AM 37.9469 -84.4186 238° Southwest 409 471 34,100  Climbing FlightAware ADS-B
Fri 12:34:32 AM 37.8846 -84.5463 238° Southwest 407 468 34,000 -55 Descending FlightAware ADS-B
Fri 12:35:18 AM 37.8420 -84.6320 238° Southwest 400 460 34,000  Level FlightAware ADS-B
Fri 12:35:33 AM 37.8255 -84.6663 239° Southwest 401 461 34,000  Level FlightAware ADS-B
Fri 12:36:03 AM 37.7960 -84.7250 238° Southwest 407 468 34,000  Level FlightAware ADS-B
Fri 12:36:43 AM 37.7590 -84.8020 239° Southwest 406 467 34,000  Level FlightAware ADS-B
Fri 12:37:23 AM 37.7180 -84.8860 238° Southwest 400 460 34,000  Level FlightAware ADS-B
Fri 12:38:08 AM 37.6750 -84.9730 238° Southwest 395 455 34,000  Level FlightAware ADS-B
Fri 12:38:48 AM 37.6380 -85.0460 237° Southwest 391 450 34,000  Level FlightAware ADS-B
Fri 12:39:33 AM 37.5970 -85.1260 237° Southwest 391 450 34,000  Level FlightAware ADS-B
Fri 12:40:13 AM 37.5630 -85.1910 237° Southwest 391 450 34,000  Level FlightAware ADS-B
Fri 12:40:53 AM 37.5170 -85.2900 240° Southwest 387 445 34,000  Level FlightAware ADS-B
Fri 12:41:38 AM 37.4730 -85.3770 238° Southwest 383 441 34,000  Level FlightAware ADS-B
Fri 12:42:18 AM 37.4370 -85.4490 238° Southwest 384 442 34,000  Level FlightAware ADS-B
Fri 12:42:37 AM 37.4153 -85.4926 238° Southwest 384 442 34,000  Level FlightAware ADS-B
Fri 12:43:10 AM 37.3847 -85.5526 237° Southwest 383 441 34,000  Level FlightAware ADS-B
Fri 12:43:42 AM 37.3531 -85.6146 237° Southwest 384 442 34,000  Level FlightAware ADS-B
Fri 12:44:26 AM 37.3111 -85.6958 237° Southwest 389 448 34,000  Level FlightAware ADS-B
Fri 12:44:58 AM 37.2796 -85.7571 237° Southwest 395 455 34,000 97 Level FlightAware ADS-B
Fri 12:45:28 AM 37.2498 -85.8173 238° Southwest 399 459 34,100  Climbing FlightAware ADS-B
Fri 12:46:01 AM 37.2174 -85.8800 237° Southwest 400 460 34,000 -95 Descending FlightAware ADS-B
Fri 12:46:31 AM 37.1875 -85.9403 238° Southwest 394 453 34,000  Level FlightAware ADS-B
Fri 12:47:01 AM 37.1579 -85.9981 237° Southwest 394 453 34,000  Level FlightAware ADS-B
Fri 12:47:31 AM 37.1284 -86.0559 237° Southwest 394 453 34,000  Level FlightAware ADS-B
Fri 12:48:02 AM 37.0983 -86.1152 238° Southwest 393 452 34,000  Level FlightAware ADS-B
Fri 12:48:34 AM 37.0668 -86.1765 237° Southwest 392 451 34,000  Level FlightAware ADS-B
Fri 12:49:05 AM 37.0369 -86.2337 237° Southwest 391 450 34,000  Level FlightAware ADS-B
Fri 12:49:35 AM 37.0070 -86.2926 238° Southwest 392 451 34,000  Level FlightAware ADS-B
Fri 12:50:05 AM 36.9771 -86.3498 237° Southwest 391 450 34,000  Level FlightAware ADS-B
Fri 12:50:36 AM 36.9463 -86.4088 237° Southwest 396 456 34,000  Level FlightAware ADS-B
Fri 12:50:58 AM 36.9248 -86.4517 238° Southwest 404 465 34,000  Level FlightAware ADS-B
Fri 12:51:29 AM 36.8970 -86.5158 242° Southwest 410 472 34,000  Level FlightAware ADS-B
Fri 12:52:00 AM 36.8683 -86.5801 241° Southwest 412 474 34,000 97 Level FlightAware ADS-B
Fri 12:52:31 AM 36.8400 -86.6451 241° Southwest 416 479 34,100 68 Climbing FlightAware ADS-B
Fri 12:53:28 AM 36.7920 -86.7530 241° Southwest 419 482 34,100  Level FlightAware ADS-B
Fri 12:54:06 AM 36.7513 -86.8451 241° Southwest 421 484 34,100 -71 Level FlightAware ADS-B
Fri 12:54:53 AM 36.7100 -86.9370 241° Southwest 425 489 34,000 -69 Descending FlightAware ADS-B
Fri 12:55:33 AM 36.6780 -87.0100 241° Southwest 425 489 34,000  Level FlightAware ADS-B
Fri 12:56:13 AM 36.6460 -87.0830 241° Southwest 425 489 34,000  Level FlightAware ADS-B
Fri 12:56:58 AM 36.5860 -87.2150 241° Southwest 430 495 34,000 71 Level FlightAware ADS-B
Fri 12:57:38 AM 36.5500 -87.2950 241° Southwest 428 493 34,100 75 Climbing FlightAware ADS-B
Fri 12:58:18 AM 36.5160 -87.3670 240° Southwest 428 493 34,100  Level FlightAware ADS-B
Fri 12:59:08 AM 36.4740 -87.4580 240° Southwest 428 493 34,100 -133 Level FlightAware ADS-B
Fri 12:59:48 AM 36.4300 -87.5620 242° Southwest 411 473 33,900 -150 Descending FlightAware ADS-B
Fri 01:00:28 AM 36.3970 -87.6320 240° Southwest 411 473 33,900  Level FlightAware ADS-B
Fri 01:01:08 AM 36.3650 -87.7010 240° Southwest 411 473 33,900  Level FlightAware ADS-B
Fri 01:01:58 AM 36.3250 -87.7880 240° Southwest 411 473 33,900  Level FlightAware ADS-B
Fri 01:02:38 AM 36.2920 -87.8580 240° Southwest 411 473 33,900  Level FlightAware ADS-B
Fri 01:03:18 AM 36.2600 -87.9270 240° Southwest 411 473 33,900  Level FlightAware ADS-B
Fri 01:03:58 AM 36.2280 -87.9970 240° Southwest 411 473 33,900  Level FlightAware ADS-B
Fri 01:04:38 AM 36.1950 -88.0660 239° Southwest 411 473 33,900  Level FlightAware ADS-B
Fri 01:05:28 AM 36.1550 -88.1530 240° Southwest 411 473 33,900  Level FlightAware ADS-B
Fri 01:06:08 AM 36.1220 -88.2220 239° Southwest 411 473 33,900  Level FlightAware ADS-B
Fri 01:06:48 AM 36.0900 -88.2910 240° Southwest 411 473 33,900  Level FlightAware ADS-B
Fri 01:07:28 AM 36.0580 -88.3600 240° Southwest 411 473 33,900  Level FlightAware ADS-B
Fri 01:08:08 AM 36.0250 -88.4300 240° Southwest 411 473 33,900  Level FlightAware ADS-B
Fri 01:08:48 AM 35.9930 -88.4990 240° Southwest 411 473 33,900 -3,917 Level FlightAware ADS-B
Fri 01:09:20 AM 35.8994 -88.7092 240° Southwest 409 471 29,200 -4,435 Descending Memphis Center
Fri 01:10:20 AM 35.8467 -88.8231 240° Southwest 404 465 27,100 -2,050 Descending Memphis Center
Fri 01:11:20 AM 35.7958 -88.9289 239° Southwest 383 441 25,100 -1,950 Descending Memphis Center
Fri 01:12:20 AM 35.7469 -89.0319 240° Southwest 371 427 23,200 -1,900 Descending Memphis Center
Fri 01:13:20 AM 35.6875 -89.1225 231° Southwest 357 411 21,300 -1,900 Descending Memphis Center
Fri 01:14:20 AM 35.6217 -89.2128 228° Southwest 345 397 19,400 -1,850 Descending Memphis Center
Fri 01:15:20 AM 35.5514 -89.3006 225° Southwest 357 411 17,600 -1,850 Descending Memphis Center
Fri 01:16:20 AM 35.4917 -89.3803 227° Southwest 343 395 15,700 -1,400 Descending Memphis Center
Fri 01:17:20 AM 35.4256 -89.4628 225° Southwest 332 382 14,800 -950 Descending Memphis Center
Fri 01:18:20 AM 35.3633 -89.5397 225° Southwest 332 382 13,800 -850 Descending Memphis Center
Fri 01:19:20 AM 35.3139 -89.6089 229° Southwest 295 339 13,100 -750 Descending Memphis Center
Fri 01:20:20 AM 35.2619 -89.6731 225° Southwest 270 311 12,300 -750 Descending Memphis Center
Fri 01:21:20 AM 35.2122 -89.7369 226° Southwest 270 311 11,600 -750 Descending Memphis Center
Fri 01:22:20 AM 35.1625 -89.7983 225° Southwest 264 304 10,800 -1,000 Descending Memphis Center
Fri 01:23:20 AM 35.1211 -89.8544 228° Southwest 241 277 9,600 -1,250 Descending Memphis Center
Fri 01:24:20 AM 35.0586 -89.8675 190° South 215 247 8,300 -1,250 Descending Memphis Center
Fri 01:25:20 AM 34.9939 -89.8653 178° South 225 259 7,100 -1,250 Descending Memphis Center
Fri 01:26:20 AM 34.9292 -89.8683 182° South 235 270 5,800 -1,350 Descending Memphis Center
Fri 01:27:20 AM 34.8644 -89.8661 178° South 235 270 4,400 -1,300 Descending Memphis Center
Fri 01:28:20 AM 34.7997 -89.8639 178° South 235 270 3,200 -842 Descending Memphis Center
Fri 01:30:11 AM 34.8333 -89.9333 301° West 171 197 2,000 -421 Descending KMEM
Fri 01:31:11 AM 34.8667 -89.9667 321° Northwest 178 205 2,000  Level KMEM
Fri 01:32:11 AM 34.9167 -89.9667 360° North 156 180 2,000 -200 Level KMEM
Fri 01:33:11 AM 34.9667 -89.9667 360° North 159 183 1,600 -550 Descending KMEM
Fri 01:34:11 AM 35.0000 -89.9667 360° North 145 167 900 -700 Descending KMEM
Fri 01:36:00 AM 35.0333 -89.9667 345° North  Level FlightAware Approximate
Fri 01:43:00 AM 35.0424 -89.9767 345° North  Level Estimated
Fri 01:44:00 AM 35.0424 -89.9767 345° North  Level Estimated
Fri 01:45:00 AM 35.0424 -89.9767 345° North  Level Estimated

Login

Don't have an account? Register now (free) for customized features, flight alerts, and more!